createdAt,value
2017-12-01T00:01:05.780Z,89.2
2017-12-01T00:02:16.043Z,89.2
2017-12-01T00:03:26.062Z,89.3
2017-12-01T00:04:36.113Z,89.2
2017-12-01T00:05:45.910Z,89.3
2017-12-01T00:06:55.853Z,89.77
2017-12-01T00:08:06.060Z,89.3
2017-12-01T00:09:16.088Z,89.58
2017-12-01T00:10:26.100Z,89.68
2017-12-01T00:11:36.445Z,89.68
2017-12-01T00:12:46.803Z,89.77
2017-12-01T00:13:57.521Z,89.39
2017-12-01T00:15:07.806Z,89.68
2017-12-01T00:16:18.192Z,89.11
2017-12-01T00:17:28.532Z,89.11
2017-12-01T00:18:38.851Z,89.3
2017-12-01T00:19:49.116Z,89.3
2017-12-01T00:20:59.423Z,89.3
2017-12-01T00:22:09.748Z,89.49
2017-12-01T00:23:19.739Z,89.96
2017-12-01T00:24:29.804Z,89.68
2017-12-01T00:25:39.784Z,89.49
2017-12-01T00:26:50.212Z,89.58
2017-12-01T00:28:00.492Z,89.68
2017-12-01T00:29:10.779Z,89.68
2017-12-01T00:30:21.144Z,89.68
2017-12-01T00:31:31.172Z,89.2
2017-12-01T00:32:41.484Z,89.68
2017-12-01T00:33:51.664Z,89.68
2017-12-01T00:35:02.561Z,89.58
2017-12-01T00:36:11.989Z,89.11
2017-12-01T00:37:21.991Z,89.2
2017-12-01T00:38:32.296Z,89.2
2017-12-01T00:39:42.286Z,88.92
2017-12-01T00:40:52.570Z,88.64
2017-12-01T00:42:02.889Z,88.92
2017-12-01T00:43:13.200Z,88.64
2017-12-01T00:44:23.247Z,89.01
2017-12-01T00:45:33.787Z,89.01
2017-12-01T00:46:43.799Z,89.58
2017-12-01T00:47:54.098Z,89.77
2017-12-01T00:49:04.431Z,89.68
2017-12-01T00:50:14.441Z,89.58
2017-12-01T00:51:24.726Z,89.58
2017-12-01T00:52:35.083Z,90.15
2017-12-01T00:53:45.696Z,89.96
2017-12-01T00:54:55.620Z,89.96
2017-12-01T00:56:05.893Z,89.68
2017-12-01T00:57:16.034Z,89.77
2017-12-01T00:58:26.295Z,89.87
2017-12-01T00:59:36.524Z,89.68
2017-12-01T01:00:46.824Z,89.3
2017-12-01T01:01:57.985Z,89.39
2017-12-01T01:03:08.723Z,88.92
2017-12-01T01:04:22.591Z,89.3
2017-12-01T01:05:32.947Z,89.63
2017-12-01T01:06:43.224Z,89.44
2017-12-01T01:07:54.538Z,90.01
2017-12-01T01:09:05.406Z,89.3
2017-12-01T01:10:15.457Z,89.63
2017-12-01T01:11:25.998Z,89.63
2017-12-01T01:12:36.927Z,89.54
2017-12-01T01:13:47.961Z,89.58
2017-12-01T01:14:57.534Z,89.77
2017-12-01T01:16:08.657Z,89.96
2017-12-01T01:17:18.978Z,89.68
2017-12-01T01:18:29.681Z,89.87
2017-12-01T01:19:40.812Z,89.68
2017-12-01T01:20:51.204Z,89.3
2017-12-01T01:22:01.839Z,89.3
2017-12-01T01:23:11.825Z,89.11
2017-12-01T01:24:22.295Z,89.58
2017-12-01T01:25:33.827Z,89.39
2017-12-01T01:26:43.967Z,89.68
2017-12-01T01:27:54.097Z,89.3
2017-12-01T01:29:04.741Z,89.11
2017-12-01T01:30:15.124Z,89.2
2017-12-01T01:31:26.288Z,89.2
2017-12-01T01:32:36.536Z,88.64
2017-12-01T01:33:47.654Z,88.54
2017-12-01T01:34:58.214Z,88.92
2017-12-01T01:36:09.341Z,88.54
2017-12-01T01:37:20.400Z,88.82
2017-12-01T01:38:31.073Z,88.82
2017-12-01T01:39:42.579Z,88.64
2017-12-01T01:40:52.637Z,88.92
2017-12-01T01:42:02.995Z,88.73
2017-12-01T01:43:13.620Z,88.17
2017-12-01T01:44:23.883Z,87.92
2017-12-01T01:45:34.985Z,88.21
2017-12-01T01:46:46.129Z,88.4
2017-12-01T01:47:57.227Z,88.87
2017-12-01T01:49:08.294Z,88.17
2017-12-01T01:50:18.550Z,87.98
2017-12-01T01:51:28.838Z,87.78
2017-12-01T01:52:39.100Z,87.98
2017-12-01T01:53:50.646Z,87.88
2017-12-01T01:55:01.379Z,88.17
2017-12-01T01:56:11.902Z,88.35
2017-12-01T01:57:22.185Z,87.98
2017-12-01T01:58:32.772Z,88.35
2017-12-01T01:59:43.089Z,88.26
2017-12-01T02:00:53.399Z,88.26
2017-12-01T02:02:03.647Z,88.07
2017-12-01T02:03:13.279Z,88.35
2017-12-01T02:04:23.607Z,87.78
2017-12-01T02:05:33.877Z,88.17
2017-12-01T02:06:44.144Z,88.17
2017-12-01T02:07:54.126Z,88.64
2017-12-01T02:09:03.562Z,88.64
2017-12-01T02:10:13.572Z,88.82
2017-12-01T02:11:23.444Z,88.82
2017-12-01T02:12:33.458Z,88.64
2017-12-01T02:13:43.510Z,88.82
2017-12-01T02:14:53.503Z,88.92
2017-12-01T02:16:03.786Z,89.2
2017-12-01T02:17:14.040Z,89.01
2017-12-01T02:18:23.657Z,88.92
2017-12-01T02:19:34.183Z,89.2
2017-12-01T02:20:44.634Z,89.2
2017-12-01T02:21:54.886Z,89.11
2017-12-01T02:23:04.873Z,89.39
2017-12-01T02:24:15.236Z,89.3
2017-12-01T02:25:25.748Z,88.82
2017-12-01T02:26:35.461Z,89.11
2017-12-01T02:27:46.024Z,89.49
2017-12-01T02:28:56.300Z,88.73
2017-12-01T02:30:06.589Z,88.82
2017-12-01T02:31:16.873Z,88.73
2017-12-01T02:32:26.881Z,89.01
2017-12-01T02:33:37.156Z,89.01
2017-12-01T02:34:47.167Z,88.64
2017-12-01T02:35:57.509Z,88.73
2017-12-01T02:37:07.803Z,88.82
2017-12-01T02:38:17.516Z,88.82
2017-12-01T02:39:27.143Z,89.01
2017-12-01T02:40:37.515Z,89.2
2017-12-01T02:41:47.979Z,88.92
2017-12-01T02:42:57.880Z,88.92
2017-12-01T02:44:08.629Z,89.3
2017-12-01T02:45:18.934Z,88.54
2017-12-01T02:46:29.215Z,88.73
2017-12-01T02:47:39.134Z,88.82
2017-12-01T02:48:49.559Z,89.01
2017-12-01T02:49:59.928Z,89.01
2017-12-01T02:51:10.288Z,89.01
2017-12-01T02:52:20.804Z,88.64
2017-12-01T02:53:31.072Z,88.54
2017-12-01T02:54:41.327Z,88.64
2017-12-01T02:55:51.655Z,88.54
2017-12-01T02:57:01.750Z,88.82
2017-12-01T02:58:12.060Z,88.82
2017-12-01T02:59:22.366Z,88.92
2017-12-01T03:00:32.400Z,89.58
2017-12-01T03:01:42.658Z,89.3
2017-12-01T03:02:52.935Z,89.3
2017-12-01T03:04:02.830Z,89.58
2017-12-01T03:05:12.814Z,89.68
2017-12-01T03:06:22.749Z,89.73
2017-12-01T03:07:32.773Z,89.54
2017-12-01T03:08:43.026Z,89.82
2017-12-01T03:09:52.704Z,90.2
2017-12-01T03:11:02.987Z,90.67
2017-12-01T03:12:13.242Z,90.67
2017-12-01T03:13:23.667Z,90.48
2017-12-01T03:14:33.398Z,91.15
2017-12-01T03:15:43.732Z,90.58
2017-12-01T03:16:53.989Z,90.3
2017-12-01T03:18:04.315Z,90.86
2017-12-01T03:19:14.574Z,90.48
2017-12-01T03:20:24.874Z,90.58
2017-12-01T03:21:34.754Z,90.2
2017-12-01T03:22:44.868Z,90.48
2017-12-01T03:23:54.911Z,90.2
2017-12-01T03:25:05.174Z,90.77
2017-12-01T03:26:15.452Z,90.48
2017-12-01T03:27:25.436Z,90.39
2017-12-01T03:28:35.807Z,90.3
2017-12-01T03:29:46.057Z,91.15
2017-12-01T03:30:56.406Z,91.05
2017-12-01T03:32:06.815Z,90.77
2017-12-01T03:33:17.086Z,90.01
2017-12-01T03:34:27.077Z,90.11
2017-12-01T03:35:37.402Z,89.82
2017-12-01T03:36:47.420Z,90.11
2017-12-01T03:37:57.287Z,90.3
2017-12-01T03:39:07.563Z,90.39
2017-12-01T03:40:17.875Z,90.48
2017-12-01T03:41:28.188Z,90.2
2017-12-01T03:42:38.461Z,90.77
2017-12-01T03:43:48.712Z,90.2
2017-12-01T03:44:58.733Z,90.01
2017-12-01T03:46:08.768Z,89.92
2017-12-01T03:47:19.342Z,90.77
2017-12-01T03:48:29.837Z,90.3
2017-12-01T03:49:40.259Z,90.11
2017-12-01T03:50:50.499Z,90.2
2017-12-01T03:52:00.755Z,89.73
2017-12-01T03:53:10.855Z,90.11
2017-12-01T03:54:21.140Z,89.92
2017-12-01T03:55:31.390Z,89.63
2017-12-01T03:56:41.669Z,89.82
2017-12-01T03:57:51.804Z,90.01
2017-12-01T03:59:01.899Z,89.73
2017-12-01T04:00:12.372Z,89.63
2017-12-01T04:01:22.875Z,89.54
2017-12-01T04:02:32.856Z,89.44
2017-12-01T04:03:43.248Z,89.44
2017-12-01T04:04:53.501Z,89.63
2017-12-01T04:06:03.853Z,89.63
2017-12-01T04:07:14.163Z,89.92
2017-12-01T04:08:25.402Z,89.63
2017-12-01T04:09:35.715Z,89.54
2017-12-01T04:10:45.426Z,89.44
2017-12-01T04:11:55.344Z,89.5
2017-12-01T04:13:05.602Z,89.78
2017-12-01T04:14:15.631Z,89.97
2017-12-01T04:15:26.243Z,89.87
2017-12-01T04:16:36.260Z,90.25
2017-12-01T04:17:46.552Z,90.34
2017-12-01T04:18:56.814Z,90.53
2017-12-01T04:20:07.063Z,90.48
2017-12-01T04:21:17.163Z,90.2
2017-12-01T04:22:27.398Z,90.2
2017-12-01T04:23:37.390Z,90.11
2017-12-01T04:24:47.449Z,89.92
2017-12-01T04:25:57.687Z,89.92
2017-12-01T04:27:07.992Z,89.54
2017-12-01T04:28:18.436Z,90.11
2017-12-01T04:29:28.411Z,89.92
2017-12-01T04:30:38.781Z,89.73
2017-12-01T04:31:49.050Z,90.01
2017-12-01T04:32:59.336Z,90.2
2017-12-01T04:34:09.584Z,89.63
2017-12-01T04:35:19.865Z,89.54
2017-12-01T04:36:29.536Z,89.92
2017-12-01T04:37:39.861Z,89.73
2017-12-01T04:38:49.851Z,90.11
2017-12-01T04:40:00.123Z,90.11
2017-12-01T04:41:10.377Z,90.01
2017-12-01T04:42:20.624Z,89.92
2017-12-01T04:43:30.914Z,89.54
2017-12-01T04:44:40.953Z,89.35
2017-12-01T04:45:50.948Z,89.44
2017-12-01T04:47:00.851Z,89.63
2017-12-01T04:48:11.166Z,89.77
2017-12-01T04:49:21.424Z,89.39
2017-12-01T04:50:31.763Z,89.11
2017-12-01T04:51:41.806Z,89.49
2017-12-01T04:52:52.470Z,88.78
2017-12-01T04:54:02.739Z,88.78
2017-12-01T04:55:13.116Z,88.59
2017-12-01T04:56:23.181Z,88.78
2017-12-01T04:57:32.922Z,88.97
2017-12-01T04:58:43.269Z,89.06
2017-12-01T04:59:53.515Z,88.87
2017-12-01T05:01:03.900Z,89.16
2017-12-01T05:02:14.181Z,88.87
2017-12-01T05:03:24.641Z,88.97
2017-12-01T05:04:34.897Z,88.87
2017-12-01T05:05:45.130Z,89.16
2017-12-01T05:06:55.175Z,88.97
2017-12-01T05:08:05.546Z,88.97
2017-12-01T05:09:15.596Z,89.54
2017-12-01T05:10:25.866Z,90.01
2017-12-01T05:11:36.118Z,89.63
2017-12-01T05:12:45.862Z,89.63
2017-12-01T05:13:55.955Z,89.82
2017-12-01T05:15:05.576Z,89.54
2017-12-01T05:16:16.204Z,89.54
2017-12-01T05:17:26.219Z,88.78
2017-12-01T05:18:36.012Z,88.78
2017-12-01T05:19:46.338Z,88.78
2017-12-01T05:20:56.590Z,88.78
2017-12-01T05:22:06.806Z,88.78
2017-12-01T05:23:17.128Z,88.59
2017-12-01T05:24:27.488Z,88.68
2017-12-01T05:25:37.862Z,88.87
2017-12-01T05:26:48.236Z,89.16
2017-12-01T05:27:58.653Z,89.16
2017-12-01T05:29:09.000Z,88.97
2017-12-01T05:30:19.462Z,89.16
2017-12-01T05:31:29.637Z,88.78
2017-12-01T05:32:40.086Z,88.49
2017-12-01T05:33:50.343Z,88.59
2017-12-01T05:35:00.585Z,88.59
2017-12-01T05:36:10.614Z,88.68
2017-12-01T05:37:20.724Z,88.59
2017-12-01T05:38:30.991Z,88.21
2017-12-01T05:39:40.969Z,88.02
2017-12-01T05:40:51.246Z,88.21
2017-12-01T05:42:01.825Z,88.68
2017-12-01T05:43:11.723Z,88.4
2017-12-01T05:44:22.035Z,88.78
2017-12-01T05:45:32.297Z,88.02
2017-12-01T05:46:42.364Z,88.12
2017-12-01T05:47:52.626Z,88.59
2017-12-01T05:49:02.961Z,89.06
2017-12-01T05:50:12.995Z,88.87
2017-12-01T05:51:23.259Z,88.21
2017-12-01T05:52:33.621Z,88.12
2017-12-01T05:53:43.878Z,88.49
2017-12-01T05:54:54.485Z,88.49
2017-12-01T05:56:04.755Z,88.21
2017-12-01T05:57:15.000Z,88.02
2017-12-01T05:58:25.068Z,88.02
2017-12-01T05:59:35.369Z,88.02
2017-12-01T06:00:45.628Z,88.31
2017-12-01T06:01:56.846Z,88.02
2017-12-01T06:03:06.969Z,87.93
2017-12-01T06:04:17.296Z,87.84
2017-12-01T06:05:27.762Z,87.74
2017-12-01T06:06:38.108Z,88.12
2017-12-01T06:07:48.367Z,88.12
2017-12-01T06:08:58.647Z,87.74
2017-12-01T06:10:08.521Z,88.02
2017-12-01T06:11:18.875Z,87.93
2017-12-01T06:12:29.160Z,88.21
2017-12-01T06:13:39.380Z,88.02
2017-12-01T06:14:49.821Z,88.31
2017-12-01T06:15:59.809Z,88.4
2017-12-01T06:17:10.128Z,88.97
2017-12-01T06:18:20.281Z,88.78
2017-12-01T06:19:30.531Z,88.78
2017-12-01T06:20:40.843Z,88.97
2017-12-01T06:21:51.131Z,88.97
2017-12-01T06:23:01.425Z,88.97
2017-12-01T06:24:11.530Z,88.68
2017-12-01T06:25:21.557Z,88.68
2017-12-01T06:26:31.447Z,88.4
2017-12-01T06:27:42.166Z,88.59
2017-12-01T06:28:52.056Z,88.45
2017-12-01T06:30:02.313Z,87.84
2017-12-01T06:31:12.714Z,88.02
2017-12-01T06:32:23.218Z,87.98
2017-12-01T06:33:33.575Z,88.17
2017-12-01T06:34:43.582Z,88.17
2017-12-01T06:35:53.830Z,87.88
2017-12-01T06:37:04.151Z,88.17
2017-12-01T06:38:14.489Z,88.92
2017-12-01T06:39:24.722Z,88.64
2017-12-01T06:40:35.131Z,88.07
2017-12-01T06:42:00.165Z,88.26
2017-12-01T06:43:10.467Z,87.88
2017-12-01T06:44:20.808Z,88.64
2017-12-01T06:45:30.812Z,88.17
2017-12-01T06:46:41.331Z,88.07
2017-12-01T06:47:51.585Z,88.17
2017-12-01T06:49:01.880Z,87.98
2017-12-01T06:50:11.805Z,88.07
2017-12-01T06:51:21.829Z,88.26
2017-12-01T06:52:32.171Z,88.26
2017-12-01T06:53:42.155Z,88.35
2017-12-01T06:54:52.079Z,88.17
2017-12-01T06:56:02.147Z,88.17
2017-12-01T06:57:13.101Z,88.35
2017-12-01T06:58:23.581Z,88.45
2017-12-01T06:59:33.918Z,88.54
2017-12-01T07:00:43.968Z,87.98
2017-12-01T07:01:54.516Z,88.17
2017-12-01T07:03:05.350Z,87.98
2017-12-01T07:04:15.874Z,87.98
2017-12-01T07:05:26.184Z,88.17
2017-12-01T07:06:36.485Z,88.82
2017-12-01T07:07:47.107Z,88.26
2017-12-01T07:08:57.450Z,88.26
2017-12-01T07:10:07.501Z,87.98
2017-12-01T07:11:17.866Z,88.64
2017-12-01T07:12:27.878Z,87.69
2017-12-01T07:13:38.010Z,87.98
2017-12-01T07:14:48.550Z,87.78
2017-12-01T07:15:58.831Z,88.26
2017-12-01T07:17:09.357Z,88.17
2017-12-01T07:18:19.175Z,87.98
2017-12-01T07:19:30.076Z,88.35
2017-12-01T07:20:41.390Z,88.02
2017-12-01T07:21:51.702Z,88.4
2017-12-01T07:23:02.262Z,87.73
2017-12-01T07:24:12.797Z,87.54
2017-12-01T07:25:23.107Z,87.73
2017-12-01T07:26:33.645Z,88.02
2017-12-01T07:27:44.137Z,88.3
2017-12-01T07:28:54.708Z,88.3
2017-12-01T07:30:04.965Z,87.92
2017-12-01T07:31:15.237Z,88.4
2017-12-01T07:32:25.998Z,88.21
2017-12-01T07:33:36.381Z,88.4
2017-12-01T07:34:46.713Z,88.11
2017-12-01T07:35:57.067Z,88.02
2017-12-01T07:37:07.554Z,88.21
2017-12-01T07:38:18.028Z,88.11
2017-12-01T07:39:28.739Z,88.11
2017-12-01T07:40:39.054Z,88.3
2017-12-01T07:41:48.410Z,87.73
2017-12-01T07:42:58.842Z,87.64
2017-12-01T07:44:09.135Z,87.73
2017-12-01T07:45:19.662Z,87.83
2017-12-01T07:46:29.377Z,87.92
2017-12-01T07:47:40.171Z,87.73
2017-12-01T07:48:51.297Z,88.21
2017-12-01T07:50:02.416Z,88.4
2017-12-01T07:51:13.223Z,88.4
2017-12-01T07:52:23.503Z,88.21
2017-12-01T07:53:33.799Z,88.02
2017-12-01T07:54:44.226Z,88.02
2017-12-01T07:55:54.520Z,88.21
2017-12-01T07:57:04.820Z,88.02
2017-12-01T07:58:15.115Z,88.3
2017-12-01T07:59:25.132Z,88.02
2017-12-01T08:00:35.152Z,88.4
2017-12-01T08:01:45.425Z,88.11
2017-12-01T08:02:55.954Z,88.4
2017-12-01T08:04:05.763Z,87.73
2017-12-01T08:05:15.851Z,88.02
2017-12-01T08:06:26.112Z,87.73
2017-12-01T08:07:36.037Z,87.83
2017-12-01T08:08:46.561Z,87.83
2017-12-01T08:09:56.907Z,87.54
2017-12-01T08:11:06.653Z,87.73
2017-12-01T08:12:17.027Z,88.02
2017-12-01T08:13:27.401Z,87.73
2017-12-01T08:14:37.405Z,87.73
2017-12-01T08:15:47.424Z,87.83
2017-12-01T08:16:57.733Z,87.92
2017-12-01T08:18:08.050Z,87.83
2017-12-01T08:19:18.484Z,88.02
2017-12-01T08:20:28.803Z,87.73
2017-12-01T08:21:38.798Z,87.35
2017-12-01T08:22:48.836Z,87.35
2017-12-01T08:23:59.126Z,87.07
2017-12-01T08:25:09.380Z,87.26
2017-12-01T08:26:19.960Z,87.07
2017-12-01T08:27:30.368Z,86.88
2017-12-01T08:28:40.686Z,86.79
2017-12-01T08:29:51.161Z,87.26
2017-12-01T08:31:01.265Z,86.79
2017-12-01T08:32:11.185Z,86.88
2017-12-01T08:33:21.218Z,87.35
2017-12-01T08:34:31.523Z,87.07
2017-12-01T08:35:42.243Z,87.45
2017-12-01T08:36:52.550Z,87.35
2017-12-01T08:38:02.546Z,86.98
2017-12-01T08:39:12.851Z,87.54
2017-12-01T08:40:22.588Z,87.35
2017-12-01T08:41:33.078Z,87.35
2017-12-01T08:42:43.394Z,87.45
2017-12-01T08:43:53.192Z,87.16
2017-12-01T08:45:03.216Z,87.26
2017-12-01T08:46:13.130Z,86.88
2017-12-01T08:47:23.451Z,87.35
2017-12-01T08:48:33.741Z,87.16
2017-12-01T08:49:44.018Z,86.79
2017-12-01T08:50:54.579Z,87.26
2017-12-01T08:52:05.091Z,87.35
2017-12-01T08:53:15.374Z,87.35
2017-12-01T08:54:25.433Z,87.07
2017-12-01T08:55:35.433Z,86.98
2017-12-01T08:56:45.535Z,87.35
2017-12-01T08:57:55.573Z,86.98
2017-12-01T08:59:05.698Z,87.73
2017-12-01T09:00:15.968Z,87.35
2017-12-01T09:01:26.274Z,87.35
2017-12-01T09:02:36.846Z,86.79
2017-12-01T09:03:47.158Z,87.35
2017-12-01T09:04:57.689Z,87.16
2017-12-01T09:06:07.950Z,87.64
2017-12-01T09:07:18.008Z,87.26
2017-12-01T09:08:28.559Z,87.07
2017-12-01T09:09:38.901Z,87.12
2017-12-01T09:10:49.311Z,87.21
2017-12-01T09:11:59.618Z,87.49
2017-12-01T09:13:09.890Z,87.3
2017-12-01T09:14:20.154Z,87.59
2017-12-01T09:15:30.226Z,86.64
2017-12-01T09:16:40.514Z,86.45
2017-12-01T09:17:50.801Z,86.55
2017-12-01T09:19:01.070Z,86.45
2017-12-01T09:20:11.357Z,85.6
2017-12-01T09:21:21.741Z,86.07
2017-12-01T09:22:31.744Z,86.16
2017-12-01T09:23:42.154Z,86.16
2017-12-01T09:24:52.451Z,86.45
2017-12-01T09:26:02.759Z,86.45
2017-12-01T09:27:13.100Z,86.26
2017-12-01T09:28:23.143Z,86.55
2017-12-01T09:29:33.665Z,86.64
2017-12-01T09:30:44.021Z,86.74
2017-12-01T09:31:54.309Z,86.93
2017-12-01T09:33:04.569Z,86.74
2017-12-01T09:34:14.606Z,86.93
2017-12-01T09:35:24.941Z,86.35
2017-12-01T09:36:35.227Z,86.55
2017-12-01T09:37:45.835Z,86.07
2017-12-01T09:38:56.419Z,86.26
2017-12-01T09:40:06.428Z,85.97
2017-12-01T09:41:16.771Z,85.69
2017-12-01T09:42:27.237Z,86.07
2017-12-01T09:43:37.527Z,86.16
2017-12-01T09:44:47.620Z,86.16
2017-12-01T09:45:58.856Z,85.88
2017-12-01T09:47:09.200Z,85.97
2017-12-01T09:48:19.476Z,86.07
2017-12-01T09:49:29.750Z,86.07
2017-12-01T09:50:39.658Z,86.45
2017-12-01T09:51:49.973Z,86.45
2017-12-01T09:53:00.339Z,86.93
2017-12-01T09:54:10.067Z,86.83
2017-12-01T09:55:20.423Z,86.74
2017-12-01T09:56:30.456Z,86.93
2017-12-01T09:57:40.186Z,86.74
2017-12-01T09:58:50.465Z,86.55
2017-12-01T10:00:00.769Z,86.83
2017-12-01T10:01:10.684Z,86.45
2017-12-01T10:02:21.173Z,86.07
2017-12-01T10:03:31.441Z,86.16
2017-12-01T10:04:41.496Z,86.83
2017-12-01T10:05:52.211Z,86.74
2017-12-01T10:07:02.218Z,86.83
2017-12-01T10:08:12.570Z,86.64
2017-12-01T10:09:22.480Z,86.45
2017-12-01T10:10:32.763Z,86.45
2017-12-01T10:12:15.019Z,86.88
2017-12-01T10:13:25.353Z,86.93
2017-12-01T10:14:35.653Z,87.02
2017-12-01T10:15:45.980Z,87.12
2017-12-01T10:16:56.020Z,87.21
2017-12-01T10:18:05.899Z,87.21
2017-12-01T10:19:16.271Z,87.02
2017-12-01T10:20:26.673Z,87.21
2017-12-01T10:21:36.945Z,87.3
2017-12-01T10:22:47.268Z,87.45
2017-12-01T10:23:57.738Z,86.78
2017-12-01T10:25:07.995Z,86.68
2017-12-01T10:26:18.250Z,86.4
2017-12-01T10:27:28.834Z,85.83
2017-12-01T10:28:39.156Z,86.02
2017-12-01T10:29:49.283Z,85.45
2017-12-01T10:30:59.673Z,85.02
2017-12-01T10:32:09.716Z,84.92
2017-12-01T10:33:20.027Z,84.83
2017-12-01T10:34:30.296Z,84.45
2017-12-01T10:35:40.071Z,84.55
2017-12-01T10:36:50.583Z,83.59
2017-12-01T10:38:01.112Z,83.54
2017-12-01T10:39:10.770Z,82.78
2017-12-01T10:40:20.925Z,82.16
2017-12-01T10:41:30.934Z,81.21
2017-12-01T10:42:41.209Z,81.06
2017-12-01T10:43:51.504Z,80.58
2017-12-01T10:45:01.982Z,79.49
2017-12-01T10:46:12.369Z,78.44
2017-12-01T10:47:22.414Z,77.97
2017-12-01T10:48:32.491Z,76.25
2017-12-01T10:49:42.522Z,76.16
2017-12-01T10:50:52.540Z,75.68
2017-12-01T10:52:03.052Z,75.53
2017-12-01T10:53:13.602Z,74.29
2017-12-01T10:54:23.360Z,73.15
2017-12-01T10:55:33.633Z,74.01
2017-12-01T10:56:43.454Z,73.63
2017-12-01T10:57:53.508Z,73.82
2017-12-01T10:59:03.527Z,72.9
2017-12-01T11:00:13.921Z,71.67
2017-12-01T11:01:24.875Z,71.38
2017-12-01T11:02:35.157Z,71.09
2017-12-01T11:03:45.892Z,70.75
2017-12-01T11:04:56.273Z,71.22
2017-12-01T11:06:06.871Z,71.51
2017-12-01T11:07:17.188Z,70.84
2017-12-01T11:08:27.592Z,69.89
2017-12-01T11:09:37.909Z,69.99
2017-12-01T11:10:48.209Z,69.6
2017-12-01T11:11:58.628Z,69.95
2017-12-01T11:13:08.655Z,69.79
2017-12-01T11:14:18.756Z,69.04
2017-12-01T11:15:29.033Z,68.75
2017-12-01T11:16:39.325Z,69.32
2017-12-01T11:17:49.585Z,69.23
2017-12-01T11:18:59.918Z,68.94
2017-12-01T11:20:10.388Z,69.23
2017-12-01T11:21:20.670Z,69.13
2017-12-01T11:22:30.789Z,68.94
2017-12-01T11:23:41.456Z,68.65
2017-12-01T11:24:51.979Z,67.7
2017-12-01T11:26:02.315Z,68.08
2017-12-01T11:27:12.584Z,68.75
2017-12-01T11:28:22.872Z,68.75
2017-12-01T11:29:33.152Z,67.61
2017-12-01T11:30:43.227Z,67.7
2017-12-01T11:31:53.531Z,67.7
2017-12-01T11:33:04.062Z,68.18
2017-12-01T11:34:14.470Z,67.61
2017-12-01T11:35:24.794Z,67.67
2017-12-01T11:36:34.633Z,68.05
2017-12-01T11:37:45.819Z,68.62
2017-12-01T11:38:56.260Z,69.29
2017-12-01T11:40:06.383Z,69.19
2017-12-01T11:41:16.667Z,69.48
2017-12-01T11:42:26.992Z,69.73
2017-12-01T11:43:37.258Z,69.54
2017-12-01T11:44:47.177Z,70.2
2017-12-01T11:45:57.602Z,69.92
2017-12-01T11:47:07.940Z,70.58
2017-12-01T11:48:18.090Z,70.68
2017-12-01T11:49:28.448Z,70.68
2017-12-01T11:50:38.862Z,70.93
2017-12-01T11:51:48.881Z,71.31
2017-12-01T11:52:58.984Z,71.59
2017-12-01T11:54:09.287Z,71.41
2017-12-01T11:55:19.468Z,71.97
2017-12-01T11:56:29.434Z,71.78
2017-12-01T11:57:39.450Z,72.07
2017-12-01T11:58:49.509Z,71.97
2017-12-01T11:59:59.803Z,72.74
2017-12-01T12:01:09.952Z,72.92
2017-12-01T12:02:19.962Z,72.41
2017-12-01T12:03:30.706Z,72.99
2017-12-01T12:04:40.783Z,73.27
2017-12-01T12:05:51.025Z,73.65
2017-12-01T12:07:01.576Z,73.93
2017-12-01T12:08:12.293Z,73.46
2017-12-01T12:09:22.950Z,73.84
2017-12-01T12:10:33.238Z,73.74
2017-12-01T12:11:43.287Z,73.88
2017-12-01T12:12:53.673Z,74.07
2017-12-01T12:14:03.431Z,73.59
2017-12-01T12:15:13.747Z,73.4
2017-12-01T12:16:24.083Z,73.11
2017-12-01T12:17:34.422Z,73.3
2017-12-01T12:18:44.482Z,73.3
2017-12-01T12:19:54.899Z,73.3
2017-12-01T12:21:04.593Z,73.11
2017-12-01T12:22:14.931Z,73.02
2017-12-01T12:23:25.210Z,73.4
2017-12-01T12:24:35.115Z,73.4
2017-12-01T12:25:45.413Z,73.18
2017-12-01T12:26:55.453Z,72.6
2017-12-01T12:28:05.708Z,73.55
2017-12-01T12:29:15.950Z,73.65
2017-12-01T12:30:26.456Z,73.55
2017-12-01T12:31:37.704Z,74.51
2017-12-01T12:32:48.067Z,74.03
2017-12-01T12:33:58.173Z,74.22
2017-12-01T12:35:08.473Z,74.18
2017-12-01T12:36:33.720Z,74.18
2017-12-01T12:37:44.467Z,75.04
2017-12-01T12:38:54.225Z,75.32
2017-12-01T12:40:04.601Z,75.7
2017-12-01T12:41:14.642Z,75.51
2017-12-01T12:42:24.904Z,75.51
2017-12-01T12:43:35.217Z,76.18
2017-12-01T12:44:45.180Z,76.18
2017-12-01T12:45:55.223Z,75.89
2017-12-01T12:47:05.131Z,76.61
2017-12-01T12:48:14.880Z,76.42
2017-12-01T12:49:25.171Z,76.52
2017-12-01T12:50:35.458Z,76.8
2017-12-01T12:51:45.766Z,76.52
2017-12-01T12:52:56.057Z,77.18
2017-12-01T12:54:06.624Z,76.99
2017-12-01T12:55:16.929Z,77.09
2017-12-01T12:56:27.439Z,76.71
2017-12-01T12:57:37.850Z,77.47
2017-12-01T12:58:48.386Z,77.66
2017-12-01T12:59:58.665Z,77.37
2017-12-01T13:01:08.947Z,77.75
2017-12-01T13:02:19.252Z,77.56
2017-12-01T13:03:29.603Z,77.47
2017-12-01T13:04:40.125Z,77.37
2017-12-01T13:05:50.543Z,77.75
2017-12-01T13:07:00.574Z,78.03
2017-12-01T13:08:10.878Z,77.94
2017-12-01T13:09:21.301Z,78.32
2017-12-01T13:10:31.625Z,78.89
2017-12-01T13:11:41.993Z,78.7
2017-12-01T13:12:52.300Z,78.8
2017-12-01T13:14:02.471Z,78.99
2017-12-01T13:15:12.814Z,78.42
2017-12-01T13:16:22.816Z,78.7
2017-12-01T13:17:32.966Z,78.61
2017-12-01T13:18:43.513Z,79.27
2017-12-01T13:19:53.901Z,78.99
2017-12-01T13:21:04.245Z,79.17
2017-12-01T13:22:14.780Z,79.17
2017-12-01T13:23:25.071Z,78.89
2017-12-01T13:24:35.145Z,78.89
2017-12-01T13:25:45.310Z,79.23
2017-12-01T13:26:55.839Z,79.23
2017-12-01T13:28:06.120Z,79.23
2017-12-01T13:29:16.606Z,79.27
2017-12-01T13:30:27.038Z,79.36
2017-12-01T13:31:37.323Z,79.71
2017-12-01T13:32:47.652Z,79.94
2017-12-01T13:33:57.683Z,79.71
2017-12-01T13:35:08.214Z,79.84
2017-12-01T13:36:18.286Z,79.8
2017-12-01T13:37:27.957Z,79.71
2017-12-01T13:38:38.259Z,79.61
2017-12-01T13:39:48.615Z,79.42
2017-12-01T13:40:58.973Z,79.71
2017-12-01T13:42:09.321Z,79.74
2017-12-01T13:43:19.634Z,80.08
2017-12-01T13:44:29.919Z,79.9
2017-12-01T13:45:40.360Z,80.65
2017-12-01T13:47:22.557Z,80.46
2017-12-01T13:48:33.193Z,80.56
2017-12-01T13:49:44.266Z,80.18
2017-12-01T13:50:54.606Z,81.13
2017-12-01T13:52:04.373Z,80.56
2017-12-01T13:53:15.335Z,80.94
2017-12-01T13:54:25.631Z,80.94
2017-12-01T13:55:35.914Z,80.94
2017-12-01T13:56:46.315Z,80.84
2017-12-01T13:57:56.698Z,80.75
2017-12-01T13:59:06.766Z,81.04
2017-12-01T14:00:17.064Z,80.84
2017-12-01T14:01:27.378Z,80.88
2017-12-01T14:02:38.344Z,80.32
2017-12-01T14:03:50.491Z,80.18
2017-12-01T14:05:03.342Z,79.99
2017-12-01T14:06:16.598Z,80.27
2017-12-01T14:07:27.151Z,80.94
2017-12-01T14:08:37.558Z,80.75
2017-12-01T14:09:47.850Z,80.75
2017-12-01T14:10:58.234Z,80.75
2017-12-01T14:12:08.567Z,80.56
2017-12-01T14:13:18.857Z,80.94
2017-12-01T14:14:28.907Z,80.94
2017-12-01T14:15:38.969Z,81.13
2017-12-01T14:16:49.311Z,80.94
2017-12-01T14:17:59.630Z,81.23
2017-12-01T14:19:09.740Z,80.94
2017-12-01T14:20:19.746Z,80.84
2017-12-01T14:21:30.112Z,80.94
2017-12-01T14:22:40.845Z,80.75
2017-12-01T14:23:50.915Z,81.51
2017-12-01T14:25:01.465Z,81.6
2017-12-01T14:26:11.416Z,81.13
2017-12-01T14:27:21.768Z,80.94
2017-12-01T14:28:32.061Z,80.94
2017-12-01T14:29:42.398Z,81.04
2017-12-01T14:30:52.746Z,80.84
2017-12-01T14:32:03.062Z,80.75
2017-12-01T14:33:13.498Z,80.56
2017-12-01T14:34:24.779Z,80.75
2017-12-01T14:35:34.829Z,80.75
2017-12-01T14:36:45.194Z,80.75
2017-12-01T14:37:55.476Z,80.84
2017-12-01T14:39:05.600Z,80.65
2017-12-01T14:40:15.765Z,80.84
2017-12-01T14:41:26.031Z,80.84
2017-12-01T14:42:36.420Z,81.04
2017-12-01T14:43:46.252Z,80.27
2017-12-01T14:44:56.600Z,80.08
2017-12-01T14:46:07.598Z,80.18
2017-12-01T14:47:17.905Z,81.04
2017-12-01T14:48:28.298Z,81.04
2017-12-01T14:49:38.203Z,80.46
2017-12-01T14:50:48.237Z,81.04
2017-12-01T14:51:58.578Z,81.04
2017-12-01T14:53:09.046Z,80.84
2017-12-01T14:54:19.631Z,81.04
2017-12-01T14:55:29.662Z,80.94
2017-12-01T14:56:40.030Z,80.94
2017-12-01T14:57:50.196Z,80.94
2017-12-01T14:59:00.718Z,81.04
2017-12-01T15:00:11.036Z,80.94
2017-12-01T15:01:21.390Z,80.84
2017-12-01T15:02:31.734Z,80.65
2017-12-01T15:03:44.339Z,80.84
2017-12-01T15:04:56.625Z,81.04
2017-12-01T15:06:09.869Z,80.94
2017-12-01T15:07:22.034Z,80.94
2017-12-01T19:39:04.666Z,84.65
2017-12-01T19:40:15.527Z,84.17
2017-12-01T19:41:26.070Z,84.17